createdAt,value
2022-12-18T00:01:27.662Z,89.77
2022-12-18T00:03:56.963Z,89.47
2022-12-18T00:06:27.978Z,89.50
2022-12-18T00:08:57.451Z,90.08
2022-12-18T00:11:28.527Z,90.36
2022-12-18T00:13:58.187Z,90.21
2022-12-18T00:16:27.580Z,90.23
2022-12-18T00:18:57.996Z,90.15
2022-12-18T00:21:27.170Z,90.93
2022-12-18T00:23:56.449Z,90.66
2022-12-18T00:26:29.196Z,91.23
2022-12-18T00:29:02.340Z,91.32
2022-12-18T00:31:32.599Z,91.62
2022-12-18T00:34:01.726Z,91.37
2022-12-18T00:36:32.857Z,91.38
2022-12-18T00:39:06.195Z,91.04
2022-12-18T00:41:52.834Z,91.65
2022-12-18T00:44:21.175Z,91.32
2022-12-18T00:46:49.299Z,91.27
2022-12-18T00:49:20.196Z,90.88
2022-12-18T00:51:49.229Z,90.34
2022-12-18T00:54:18.481Z,90.46
2022-12-18T00:56:49.338Z,90.43
2022-12-18T00:59:18.957Z,90.25
2022-12-18T01:01:47.617Z,90.09
2022-12-18T01:04:16.235Z,89.90
2022-12-18T01:06:46.719Z,89.97
2022-12-18T01:09:14.757Z,89.90
2022-12-18T01:11:42.543Z,89.93
2022-12-18T01:14:11.313Z,89.93
2022-12-18T01:16:39.639Z,89.80
2022-12-18T01:19:07.768Z,89.34
2022-12-18T01:21:35.627Z,89.51
2022-12-18T01:24:06.075Z,89.57
2022-12-18T01:26:34.284Z,89.71
2022-12-18T01:29:02.253Z,89.32
2022-12-18T01:31:33.434Z,89.15
2022-12-18T01:34:05.500Z,89.07
2022-12-18T01:36:35.869Z,89.03
2022-12-18T01:39:07.865Z,89.13
2022-12-18T01:41:55.926Z,89.02
2022-12-18T01:44:56.424Z,89.12
2022-12-18T01:47:39.062Z,89.20
2022-12-18T01:50:17.646Z,88.88
2022-12-18T01:52:49.939Z,89.00
2022-12-18T01:55:21.295Z,89.09
2022-12-18T01:57:53.227Z,89.07
2022-12-18T02:00:23.491Z,88.99
2022-12-18T02:02:53.044Z,88.68
2022-12-18T02:05:33.025Z,88.65
2022-12-18T02:08:19.646Z,88.45
2022-12-18T02:11:03.481Z,88.28
2022-12-18T02:13:41.982Z,87.85
2022-12-18T02:16:38.221Z,87.47
2022-12-18T02:19:30.070Z,87.51
2022-12-18T02:22:28.573Z,87.72
2022-12-18T02:25:14.602Z,87.92
2022-12-18T02:27:47.426Z,87.87
2022-12-18T02:30:16.437Z,87.88
2022-12-18T02:32:50.616Z,88.24
2022-12-18T02:35:24.895Z,88.17
2022-12-18T02:37:55.581Z,88.29
2022-12-18T02:40:27.375Z,88.70
2022-12-18T02:42:55.752Z,88.51
2022-12-18T02:45:25.123Z,88.61
2022-12-18T02:47:53.645Z,88.68
2022-12-18T02:50:44.683Z,88.66
2022-12-18T02:53:21.246Z,89.17
2022-12-18T02:56:08.385Z,89.18
2022-12-18T02:58:52.744Z,90.44
2022-12-18T03:01:44.162Z,90.71
2022-12-18T03:04:19.422Z,90.90
2022-12-18T03:06:52.259Z,90.77
2022-12-18T03:09:25.812Z,90.77
2022-12-18T03:12:11.484Z,90.30
2022-12-18T03:14:41.413Z,89.98
2022-12-18T03:17:14.555Z,89.61
2022-12-18T03:19:43.942Z,89.10
2022-12-18T03:22:12.560Z,89.06
2022-12-18T03:24:47.742Z,89.06
2022-12-18T03:27:19.132Z,89.25
2022-12-18T03:29:51.976Z,88.89
2022-12-18T03:32:29.818Z,88.99
2022-12-18T03:35:03.951Z,89.30
2022-12-18T03:37:34.697Z,89.36
2022-12-18T03:40:03.447Z,89.39
2022-12-18T03:42:53.860Z,89.34
2022-12-18T03:45:33.314Z,89.29
2022-12-18T03:48:12.309Z,89.74
2022-12-18T03:50:49.984Z,89.63
2022-12-18T03:53:45.971Z,89.60
2022-12-18T03:56:17.220Z,89.65
2022-12-18T03:58:47.072Z,89.74
2022-12-18T04:01:21.575Z,89.46
2022-12-18T04:03:51.637Z,89.32
2022-12-18T04:06:21.128Z,89.08
2022-12-18T04:08:49.357Z,88.67
2022-12-18T04:11:19.258Z,88.51
2022-12-18T04:13:47.179Z,88.36
2022-12-18T04:16:22.252Z,88.27
2022-12-18T04:18:52.994Z,88.12
2022-12-18T04:21:22.039Z,88.05
2022-12-18T04:23:50.437Z,87.61
2022-12-18T04:26:19.546Z,87.13
2022-12-18T04:29:00.131Z,86.17
2022-12-18T04:31:30.301Z,86.02
2022-12-18T04:33:58.224Z,86.00
2022-12-18T04:36:26.326Z,86.48
2022-12-18T04:38:54.352Z,86.29
2022-12-18T04:41:22.529Z,85.07
2022-12-18T04:43:50.631Z,84.81
2022-12-18T04:46:18.474Z,85.05
2022-12-18T04:48:47.750Z,84.78
2022-12-18T04:51:15.670Z,84.16
2022-12-18T04:53:43.753Z,84.23
2022-12-18T04:56:14.959Z,84.49
2022-12-18T04:58:45.009Z,84.86
2022-12-18T05:01:14.886Z,84.86
2022-12-18T05:03:44.227Z,85.06
2022-12-18T05:06:12.408Z,85.09
2022-12-18T05:08:40.475Z,84.87
2022-12-18T05:11:12.555Z,84.75
2022-12-18T05:13:40.598Z,84.74
2022-12-18T05:16:09.858Z,84.55
2022-12-18T05:18:38.161Z,84.54
2022-12-18T05:21:06.280Z,84.71
2022-12-18T05:23:35.815Z,84.60
2022-12-18T05:26:06.692Z,84.82
2022-12-18T05:28:36.786Z,84.77
2022-12-18T05:31:06.114Z,84.63
2022-12-18T05:33:36.237Z,84.94
2022-12-18T05:36:07.058Z,84.95
2022-12-18T05:38:37.192Z,85.05
2022-12-18T05:41:05.515Z,84.84
2022-12-18T05:43:37.161Z,85.00
2022-12-18T05:46:08.018Z,84.98
2022-12-18T05:48:35.891Z,84.82
2022-12-18T05:51:06.861Z,84.37
2022-12-18T05:53:36.221Z,84.22
2022-12-18T05:56:06.653Z,84.47
2022-12-18T05:58:35.097Z,84.38
2022-12-18T06:01:10.344Z,84.51
2022-12-18T06:03:38.840Z,84.43
2022-12-18T06:06:27.916Z,84.22
2022-12-18T06:08:56.794Z,84.39
2022-12-18T06:11:27.988Z,84.47
2022-12-18T06:13:59.185Z,84.59
2022-12-18T06:16:28.718Z,84.68
2022-12-18T06:18:59.224Z,84.92
2022-12-18T06:21:29.191Z,84.86
2022-12-18T06:23:57.391Z,84.56
2022-12-18T06:26:28.372Z,84.80
2022-12-18T06:28:56.538Z,85.20
2022-12-18T06:31:25.286Z,85.58
2022-12-18T06:33:53.228Z,85.36
2022-12-18T06:36:21.970Z,85.78
2022-12-18T06:38:49.931Z,85.35
2022-12-18T06:41:21.582Z,84.62
2022-12-18T06:43:49.460Z,84.57
2022-12-18T06:46:17.422Z,84.48
2022-12-18T06:48:49.528Z,84.21
2022-12-18T06:51:21.381Z,84.20
2022-12-18T06:53:50.007Z,84.69
2022-12-18T06:56:18.329Z,84.65
2022-12-18T06:58:46.055Z,84.40
2022-12-18T07:01:15.049Z,84.96
2022-12-18T07:03:43.865Z,84.68
2022-12-18T07:06:16.386Z,84.23
2022-12-18T07:08:45.203Z,84.26
2022-12-18T07:11:13.620Z,84.23
2022-12-18T07:13:41.964Z,84.20
2022-12-18T07:16:22.361Z,84.10
2022-12-18T07:18:53.100Z,84.78
2022-12-18T07:21:22.478Z,84.38
2022-12-18T07:23:50.594Z,84.24
2022-12-18T07:26:21.629Z,83.75
2022-12-18T07:28:49.732Z,82.99
2022-12-18T07:31:22.065Z,82.71
2022-12-18T07:33:51.588Z,82.59
2022-12-18T07:36:20.100Z,82.18
2022-12-18T07:38:49.290Z,82.48
2022-12-18T07:41:17.670Z,81.99
2022-12-18T07:43:46.074Z,82.09
2022-12-18T07:46:15.388Z,81.20
2022-12-18T07:48:44.258Z,81.06
2022-12-18T07:51:18.751Z,80.89
2022-12-18T07:53:47.080Z,81.17
2022-12-18T07:56:27.681Z,81.33
2022-12-18T07:58:56.888Z,81.17
2022-12-18T08:01:24.956Z,81.17
2022-12-18T08:03:52.886Z,81.27
2022-12-18T08:06:21.275Z,80.74
2022-12-18T08:08:53.578Z,81.06
2022-12-18T08:11:21.758Z,81.40
2022-12-18T08:13:50.617Z,81.32
2022-12-18T08:16:20.017Z,80.79
2022-12-18T08:18:48.660Z,80.86
2022-12-18T08:21:22.314Z,79.34
2022-12-18T08:23:53.936Z,78.45
2022-12-18T08:26:22.615Z,78.92
2022-12-18T08:28:52.092Z,78.95
2022-12-18T08:31:20.083Z,79.16
2022-12-18T08:33:51.328Z,78.95
2022-12-18T08:36:20.113Z,78.94
2022-12-18T08:38:48.279Z,78.64
2022-12-18T08:41:18.210Z,78.53
2022-12-18T08:44:03.958Z,78.39
2022-12-18T08:46:36.668Z,78.08
2022-12-18T08:49:05.007Z,78.19
2022-12-18T08:51:33.487Z,78.16
2022-12-18T08:54:01.962Z,78.18
2022-12-18T08:56:30.978Z,77.50
2022-12-18T08:58:58.685Z,76.89
2022-12-18T09:01:26.770Z,77.10
2022-12-18T09:03:54.607Z,77.20
2022-12-18T09:06:29.550Z,76.63
2022-12-18T09:08:58.301Z,76.63
2022-12-18T09:11:28.132Z,76.40
2022-12-18T09:13:57.384Z,76.61
2022-12-18T09:16:31.672Z,76.06
2022-12-18T09:19:00.955Z,75.73
2022-12-18T09:21:41.215Z,75.38
2022-12-18T09:24:15.237Z,75.79
2022-12-18T09:26:47.401Z,75.61
2022-12-18T09:29:19.001Z,75.38
2022-12-18T09:31:47.984Z,74.78
2022-12-18T09:34:16.351Z,74.44
2022-12-18T09:36:44.460Z,74.82
2022-12-18T09:39:12.244Z,75.12
2022-12-18T09:41:51.136Z,75.15
2022-12-18T09:44:27.119Z,75.57
2022-12-18T09:47:07.889Z,74.69
2022-12-18T09:49:41.654Z,74.58
2022-12-18T09:52:15.559Z,74.14
2022-12-18T09:54:49.051Z,73.94
2022-12-18T09:57:22.154Z,74.04
2022-12-18T09:59:56.001Z,73.50
2022-12-18T10:02:26.853Z,71.94
2022-12-18T10:05:07.708Z,72.68
2022-12-18T10:08:03.583Z,72.88
2022-12-18T10:10:47.594Z,72.95
2022-12-18T10:13:34.205Z,73.40
2022-12-18T10:16:17.197Z,72.26
2022-12-18T10:19:16.948Z,73.30
2022-12-18T10:21:57.487Z,73.75
2022-12-18T10:24:50.369Z,72.76
2022-12-18T10:27:24.373Z,72.62
2022-12-18T10:29:52.280Z,72.59
2022-12-18T10:32:26.051Z,72.70
2022-12-18T10:35:00.407Z,72.27
2022-12-18T10:37:30.626Z,71.66
2022-12-18T10:40:21.841Z,71.54
2022-12-18T10:43:13.136Z,71.50
2022-12-18T10:45:41.947Z,71.17
2022-12-18T10:48:23.616Z,70.84
2022-12-18T10:53:43.656Z,71.82
2022-12-18T10:56:11.874Z,71.55
2022-12-18T10:58:41.226Z,72.00
2022-12-18T11:01:17.126Z,71.48
2022-12-18T11:04:02.464Z,71.91
2022-12-18T11:06:30.901Z,71.09
2022-12-18T11:09:03.672Z,71.10
2022-12-18T11:11:34.246Z,70.78
2022-12-18T11:14:18.659Z,70.09
2022-12-18T11:17:23.684Z,70.38
2022-12-18T11:19:40.752Z,70.22
2022-12-18T11:22:28.727Z,69.67
2022-12-18T11:28:05.827Z,69.92
2022-12-18T11:30:36.143Z,69.10
2022-12-18T11:33:17.567Z,69.56
2022-12-18T11:36:04.756Z,69.68
2022-12-18T11:38:37.028Z,69.42
2022-12-18T11:41:22.228Z,68.97
2022-12-18T11:44:00.171Z,68.29
2022-12-18T11:46:37.077Z,68.31
2022-12-18T11:49:15.190Z,68.06
2022-12-18T11:51:50.060Z,68.09
2022-12-18T11:54:17.886Z,68.66
2022-12-18T11:56:54.792Z,67.58
2022-12-18T11:59:37.983Z,67.71
2022-12-18T12:02:36.362Z,67.41
2022-12-18T12:05:19.965Z,67.89
2022-12-18T12:07:58.926Z,68.17
2022-12-18T12:10:43.112Z,68.07
2022-12-18T12:13:39.769Z,67.55
2022-12-18T12:16:30.117Z,64.25
2022-12-18T12:19:21.657Z,63.76
2022-12-18T12:22:03.528Z,59.65
2022-12-18T12:25:07.466Z,60.33
2022-12-18T12:27:55.459Z,60.70
2022-12-18T12:30:39.910Z,59.33
2022-12-18T12:33:22.752Z,59.24
2022-12-18T12:36:18.247Z,60.49
2022-12-18T12:38:53.162Z,60.30
2022-12-18T12:41:38.396Z,61.15
2022-12-18T12:44:14.003Z,60.30
2022-12-18T12:46:43.338Z,61.57
2022-12-18T12:49:16.829Z,61.93
2022-12-18T12:51:48.680Z,61.84
2022-12-18T12:54:20.945Z,61.75
2022-12-18T12:56:57.276Z,63.05
2022-12-18T12:59:39.631Z,62.72
2022-12-18T13:02:24.698Z,62.49
2022-12-18T13:05:03.133Z,63.26
2022-12-18T13:07:40.726Z,64.04
2022-12-18T13:10:27.183Z,63.50
2022-12-18T13:12:59.859Z,64.14
2022-12-18T13:15:41.712Z,64.52
2022-12-18T13:18:17.413Z,64.45
2022-12-18T13:21:04.153Z,64.12
2022-12-18T13:23:37.271Z,63.34
2022-12-18T13:26:30.211Z,63.23
2022-12-18T13:28:59.868Z,63.63
2022-12-18T13:31:59.776Z,64.28
2022-12-18T13:34:32.192Z,64.86
2022-12-18T13:37:32.323Z,65.30
2022-12-18T13:40:00.387Z,65.68
2022-12-18T13:43:02.317Z,65.80
2022-12-18T13:45:39.866Z,65.85
2022-12-18T13:48:24.363Z,65.81
2022-12-18T13:50:57.940Z,65.16
2022-12-18T13:53:31.630Z,65.58
2022-12-18T13:56:00.105Z,65.20
2022-12-18T13:58:28.455Z,64.29
2022-12-18T14:00:56.320Z,64.17
2022-12-18T14:03:27.813Z,65.94
2022-12-18T14:06:02.721Z,67.00
2022-12-18T14:08:38.238Z,67.79
2022-12-18T14:11:08.321Z,68.89
2022-12-18T14:13:43.011Z,69.40
2022-12-18T14:16:15.701Z,70.19
2022-12-18T14:18:58.536Z,71.05
2022-12-18T14:21:36.120Z,71.62
2022-12-18T14:24:14.194Z,71.72
2022-12-18T14:26:43.774Z,72.12
2022-12-18T14:29:26.752Z,73.01
2022-12-18T14:32:14.903Z,73.76
2022-12-18T14:34:48.318Z,74.56
2022-12-18T14:37:26.740Z,75.16
2022-12-18T14:39:59.112Z,75.40
2022-12-18T14:42:29.334Z,75.49
2022-12-18T14:45:41.537Z,76.63
2022-12-18T14:48:24.446Z,76.26
2022-12-18T14:51:04.114Z,75.95
2022-12-18T14:53:53.981Z,75.88
2022-12-18T14:56:26.444Z,76.00
2022-12-18T14:58:57.772Z,76.69
2022-12-18T15:01:34.375Z,76.22
2022-12-18T15:04:04.108Z,76.59
2022-12-18T15:06:38.445Z,76.95
2022-12-18T15:09:23.855Z,77.39
2022-12-18T15:11:58.397Z,77.40
2022-12-18T15:14:42.366Z,77.81
2022-12-18T15:17:20.806Z,77.62
2022-12-18T15:19:51.203Z,77.82
2022-12-18T15:22:34.710Z,77.10
2022-12-18T15:25:05.212Z,77.29
2022-12-18T15:27:38.602Z,76.91
2022-12-18T15:30:26.684Z,77.28
2022-12-18T15:33:23.465Z,76.85
2022-12-18T15:36:00.823Z,76.91
2022-12-18T15:38:28.701Z,76.62
2022-12-18T15:40:56.608Z,76.59
2022-12-18T15:43:40.461Z,76.31
2022-12-18T15:46:21.662Z,77.14
2022-12-18T15:48:55.534Z,77.64
2022-12-18T15:51:32.398Z,77.12
2022-12-18T15:54:04.815Z,76.97
2022-12-18T15:56:50.746Z,77.04
2022-12-18T15:59:21.126Z,76.69
2022-12-18T16:01:51.870Z,77.33
2022-12-18T16:04:22.188Z,77.21
2022-12-18T16:07:13.689Z,77.98
2022-12-18T16:09:38.277Z,77.69
2022-12-18T16:12:10.869Z,77.35
2022-12-18T16:14:38.853Z,77.58
2022-12-18T16:17:11.723Z,77.52
2022-12-18T16:19:39.591Z,77.30
2022-12-18T16:22:18.923Z,77.62
2022-12-18T16:24:46.708Z,77.60
2022-12-18T16:27:14.770Z,77.91
2022-12-18T16:29:42.639Z,77.72
2022-12-18T16:32:14.917Z,77.86
2022-12-18T16:34:44.482Z,77.66
2022-12-18T16:37:14.559Z,78.17
2022-12-18T16:39:42.747Z,79.09
2022-12-18T16:42:17.842Z,78.46
2022-12-18T16:44:47.581Z,78.40
2022-12-18T16:47:17.186Z,78.74
2022-12-18T16:49:45.985Z,78.73
2022-12-18T16:52:14.709Z,78.69
2022-12-18T16:54:42.914Z,78.76
2022-12-18T16:57:17.952Z,78.65
2022-12-18T16:59:46.331Z,79.33
2022-12-18T17:02:24.993Z,79.07
2022-12-18T17:04:56.064Z,79.12
2022-12-18T17:07:25.224Z,79.23
2022-12-18T17:09:54.576Z,79.38
2022-12-18T17:12:22.997Z,79.64
2022-12-18T17:14:51.361Z,79.46
2022-12-18T17:17:22.244Z,79.40
2022-12-18T17:19:51.915Z,79.14
2022-12-18T17:22:21.132Z,79.15
2022-12-18T17:24:49.017Z,79.31
2022-12-18T17:27:16.837Z,79.20
2022-12-18T17:29:48.284Z,79.23
2022-12-18T17:32:17.925Z,79.21
2022-12-18T17:34:46.278Z,79.53
2022-12-18T17:37:14.566Z,79.25
2022-12-18T17:39:42.400Z,79.45
2022-12-18T17:42:14.798Z,79.26
2022-12-18T17:44:44.303Z,79.46
2022-12-18T17:47:13.626Z,79.53
2022-12-18T17:49:41.892Z,79.75
2022-12-18T17:52:09.832Z,79.35
2022-12-18T17:54:39.961Z,80.85
2022-12-18T17:57:08.367Z,80.22
2022-12-18T17:59:36.466Z,79.82
2022-12-18T18:02:05.344Z,79.99
2022-12-18T18:04:37.385Z,79.87
2022-12-18T18:07:08.442Z,79.89
2022-12-18T18:09:36.212Z,80.06
2022-12-18T18:12:19.224Z,80.31
2022-12-18T18:14:47.050Z,80.36
2022-12-18T18:17:17.500Z,80.23
2022-12-18T18:19:47.428Z,80.35
2022-12-18T18:22:18.888Z,80.34
2022-12-18T18:24:47.002Z,80.47
2022-12-18T18:27:15.196Z,80.38
2022-12-18T18:29:43.196Z,80.38
2022-12-18T18:32:10.985Z,80.39
2022-12-18T18:34:38.881Z,80.37
2022-12-18T18:37:07.620Z,80.47
2022-12-18T18:39:35.996Z,80.60
2022-12-18T18:42:03.976Z,80.84
2022-12-18T18:44:32.289Z,80.98
2022-12-18T18:47:00.124Z,81.25
2022-12-18T18:49:29.848Z,81.24
2022-12-18T18:51:58.163Z,81.71
2022-12-18T18:54:26.120Z,81.78
2022-12-18T18:59:42.978Z,82.43
2022-12-18T19:02:13.353Z,82.36
2022-12-18T19:04:45.793Z,82.28
2022-12-18T19:07:29.338Z,82.38
2022-12-18T19:10:04.808Z,82.14
2022-12-18T19:12:53.230Z,81.96
2022-12-18T19:15:22.775Z,81.92
2022-12-18T19:17:50.889Z,81.61
2022-12-18T19:20:19.166Z,81.62
2022-12-18T19:22:51.997Z,81.57
2022-12-18T19:25:38.040Z,81.33
2022-12-18T19:28:21.210Z,81.56
2022-12-18T19:30:56.343Z,81.48
2022-12-18T19:33:45.221Z,81.78
2022-12-18T19:36:19.015Z,81.61
2022-12-18T19:38:47.881Z,81.94
2022-12-18T19:41:17.756Z,82.04
2022-12-18T19:43:46.776Z,81.77
2022-12-18T19:46:17.882Z,81.83
2022-12-18T19:48:46.709Z,81.89
2022-12-18T19:51:22.409Z,81.92
2022-12-18T19:53:56.428Z,81.83
2022-12-18T19:56:29.707Z,81.71
2022-12-18T19:58:57.725Z,81.98
2022-12-18T20:01:27.845Z,81.79
2022-12-18T20:03:57.433Z,81.91
2022-12-18T20:06:32.965Z,81.95
2022-12-18T20:09:04.160Z,81.88
2022-12-18T20:11:36.360Z,81.99
2022-12-18T20:14:10.952Z,82.07
2022-12-18T20:16:39.201Z,82.29
2022-12-18T20:19:07.216Z,82.25
2022-12-18T20:21:35.975Z,82.35
2022-12-18T20:24:06.909Z,82.10
2022-12-18T20:26:34.709Z,82.20
2022-12-18T20:29:02.475Z,82.23
2022-12-18T20:31:30.289Z,82.31
2022-12-18T20:34:01.535Z,82.49
2022-12-18T20:36:31.684Z,82.61
2022-12-18T20:39:02.660Z,82.86
2022-12-18T20:41:37.673Z,82.68
2022-12-18T20:44:09.581Z,82.65
2022-12-18T20:46:54.560Z,82.94
2022-12-18T20:49:24.770Z,82.85
2022-12-18T20:51:54.715Z,82.93
2022-12-18T20:54:27.562Z,82.99
2022-12-18T20:56:56.433Z,82.91
2022-12-18T20:59:25.692Z,82.97
2022-12-18T21:01:54.075Z,82.95
2022-12-18T21:04:22.519Z,82.59
2022-12-18T21:06:57.844Z,82.77
2022-12-18T21:09:37.558Z,82.83
2022-12-18T21:12:40.585Z,82.72
2022-12-18T21:15:16.073Z,82.72
2022-12-18T21:17:46.939Z,82.66
2022-12-18T21:20:17.917Z,82.55
2022-12-18T21:22:46.948Z,82.38
2022-12-18T21:25:14.759Z,82.43
2022-12-18T21:27:42.524Z,82.26
2022-12-18T21:30:10.755Z,82.53
2022-12-18T21:32:38.427Z,83.49
2022-12-18T21:35:06.607Z,83.14
2022-12-18T21:37:34.568Z,82.81
2022-12-18T21:40:02.413Z,82.85
2022-12-18T21:42:44.617Z,82.87
2022-12-18T21:45:12.393Z,83.11
2022-12-18T21:47:40.112Z,83.09
2022-12-18T21:50:08.602Z,82.68
2022-12-18T21:52:36.316Z,82.53
2022-12-18T21:55:09.600Z,82.52
2022-12-18T21:57:39.127Z,82.79
2022-12-18T22:00:10.478Z,82.52
2022-12-18T22:02:40.883Z,83.09
2022-12-18T22:05:09.030Z,83.28
2022-12-18T22:07:36.857Z,83.20
2022-12-18T22:10:04.953Z,83.12
2022-12-18T22:12:43.988Z,83.41
2022-12-18T22:15:20.387Z,83.72
2022-12-18T22:17:51.153Z,83.77
2022-12-18T22:20:29.802Z,83.39
2022-12-18T22:22:58.685Z,83.49
2022-12-18T22:25:28.827Z,83.16
2022-12-18T22:28:06.891Z,83.26
2022-12-18T22:30:35.299Z,83.00
2022-12-18T22:33:03.823Z,83.08
2022-12-18T22:35:31.553Z,83.24
2022-12-18T22:38:00.118Z,83.01
2022-12-18T22:40:29.168Z,82.93
2022-12-18T22:42:57.021Z,82.94
2022-12-18T22:45:26.308Z,82.98
2022-12-18T22:47:54.129Z,82.81
2022-12-18T22:50:21.948Z,82.95
2022-12-18T22:52:49.685Z,83.21
2022-12-18T22:55:17.418Z,82.88
2022-12-18T22:57:48.734Z,82.97
2022-12-18T23:00:21.001Z,83.04
2022-12-18T23:02:59.856Z,82.95
2022-12-18T23:05:30.853Z,83.11
2022-12-18T23:07:59.289Z,82.86
2022-12-18T23:10:27.560Z,83.41
2022-12-18T23:12:55.368Z,83.14
2022-12-18T23:15:27.609Z,83.18
2022-12-18T23:17:58.647Z,83.14
2022-12-18T23:20:27.711Z,83.47
2022-12-18T23:22:55.748Z,83.48
2022-12-18T23:25:23.527Z,83.42
2022-12-18T23:27:51.438Z,83.54
2022-12-18T23:30:19.195Z,83.58
2022-12-18T23:32:47.070Z,83.77
2022-12-18T23:35:15.817Z,83.93
2022-12-18T23:38:00.553Z,83.66
2022-12-18T23:40:29.801Z,83.59
2022-12-18T23:42:59.039Z,83.58
2022-12-18T23:45:26.801Z,83.47
2022-12-18T23:47:54.527Z,83.85
2022-12-18T23:50:24.022Z,83.58
2022-12-18T23:53:05.173Z,83.59
2022-12-18T23:55:39.292Z,83.25
2022-12-18T23:58:22.557Z,83.35
